Flight Track Log - Related Links

Times and Time Zones

All times are in EDT time to prevent confusion due to time zone crossing. See the LBQ792 flight status page for this flight to view local times or setup timezone preferences in your user account.

Time Position Orientation Groundspeed Altitude Reporting Facility
EDT Latitude Longitude Course Direction KTS MPH feet Rate Location/Type
Fri 08:33:42 PM 40.4469 -76.1136 288° West 169 194 4,000  Level New York Center
Fri 08:34:43 PM 40.4922 -76.1253 349° North 175 201 5,200 1,150 Climbing New York Center
Fri 08:35:42 PM 40.5414 -76.1456 343° North 184 212 6,300 1,200 Climbing New York Center
Fri 08:36:43 PM 40.5964 -76.1717 340° North 189 217 7,600 1,160 Climbing New York Center
Fri 08:37:00 PM 40.5167 -76.4374 270° West  Level FlightAware Approximate
Fri 08:37:41 PM 40.6497 -76.1897 346° North 189 217 8,600  Level New York Center
Fri 08:38:00 PM 40.5363 -76.5284 288° West  Level FlightAware Approximate
Fri 08:38:40 PM 40.7014 -76.2019 350° North 189 217 9,500  Level New York Center
Fri 08:39:42 PM 40.7511 -76.2058 357° North 189 217 10,700 1,230 Climbing New York Center
Fri 08:40:42 PM 40.8156 -76.2083 358° North 201 231 12,000 655 Climbing New York Center
Fri 08:41:41 PM 40.8803 -76.2081 360° North 223 257 12,000  Level New York Center
Fri 08:42:42 PM 40.9503 -76.2247 350° North 239 275 12,000  Level New York Center
Fri 08:43:43 PM 41.0072 -76.2567 337° Northwest 244 281 12,000  Level New York Center
Fri 08:44:42 PM 41.0783 -76.2953 338° Northwest 249 287 12,000  Level New York Center
Fri 08:45:43 PM 41.1433 -76.3283 339° North 249 287 12,000 50 Level New York Center
Fri 08:46:43 PM 41.2083 -76.3639 338° Northwest 249 287 12,100 51 Climbing New York Center
Fri 08:47:41 PM 41.2672 -76.3964 337° Northwest 249 287 12,100  Level New York Center
Fri 08:48:42 PM 41.3325 -76.4294 339° North 249 287 12,100  Level New York Center
Fri 08:49:42 PM 41.4075 -76.4692 338° Northwest 249 287 12,100  Level New York Center
Fri 08:50:41 PM 41.4747 -76.5053 338° Northwest 249 287 12,100  Level New York Center
Fri 08:51:41 PM 41.5425 -76.5247 348° North 249 287 12,100 -149 Level New York Center
Fri 08:52:42 PM 41.6058 -76.5469 345° North 259 298 11,800 -689 Descending New York Center
Fri 08:53:43 PM 41.6775 -76.5753 344° North 259 298 10,700 -1,140 Descending New York Center
Fri 08:54:43 PM 41.7475 -76.5869 353° North 244 281 9,500 -1,050 Descending New York Center
Fri 08:55:43 PM 41.8175 -76.6042 350° North 244 281 8,600 -1,017 Descending New York Center
Fri 08:56:41 PM 41.8722 -76.6369 336° Northwest 232 267 7,500 -1,169 Descending New York Center
Fri 08:57:41 PM 41.9283 -76.6808 330° Northwest 226 260 6,300 -1,289 Descending New York Center
Fri 08:58:42 PM 41.9842 -76.7278 328° Northwest 232 267 4,900 -1,300 Descending New York Center
Fri 08:59:41 PM 42.0386 -76.7661 332° Northwest 237 273 3,700 -605 Descending New York Center
Fri 09:00:41 PM 42.0886 -76.8069 329° Northwest 232 267 3,700  Level New York Center
Fri 09:01:43 PM 42.1281 -76.8497 321° Northwest 205 236 3,700 -98 Level New York Center
Fri 09:02:43 PM 42.1378 -76.9011 284° West 150 173 3,500  Descending New York Center
Fri 09:03:41 PM 42.1503 -76.9442 291° West 138 159 3,700 -203 Climbing New York Center
Fri 09:04:41 PM 42.1878 -76.9028 39° Northeast 102 117 3,100 -541 Descending New York Center
Fri 09:05:43 PM 42.2100 -76.8742 44° Northeast 102 117 2,600 -484 Descending New York Center

Login

Don't have an account? Register now (free) for customized features, flight alerts, and more!